createdAt,value
2018-04-18T00:01:35.393Z,36.37
2018-04-18T00:04:01.490Z,35.97
2018-04-18T00:06:27.583Z,29.53
2018-04-18T00:08:53.684Z,29.07
2018-04-18T00:11:20.524Z,28.93
2018-04-18T00:13:47.362Z,32.80
2018-04-18T00:16:13.450Z,36.30
2018-04-18T00:18:39.563Z,36.77
2018-04-18T00:21:05.747Z,39.77
2018-04-18T00:23:31.834Z,30.10
2018-04-18T00:25:58.139Z,42.97
2018-04-18T00:28:24.981Z,38.03
2018-04-18T00:30:51.079Z,32.73
2018-04-18T00:33:17.182Z,32.73
2018-04-18T00:35:43.257Z,38.67
2018-04-18T00:38:09.339Z,37.37
2018-04-18T00:40:35.428Z,36.93
2018-04-18T00:43:02.449Z,33.30
2018-04-18T00:45:28.548Z,31.80
2018-04-18T00:47:54.668Z,36.87
2018-04-18T00:50:20.752Z,34.93
2018-04-18T00:52:46.843Z,30.30
2018-04-18T00:55:12.930Z,31.47
2018-04-18T00:57:39.042Z,32.40
2018-04-18T01:00:05.142Z,37.37
2018-04-18T01:02:31.247Z,36.50
2018-04-18T01:04:57.358Z,29.53
2018-04-18T01:07:23.419Z,39.33
2018-04-18T01:09:49.562Z,32.77
2018-04-18T01:12:15.650Z,30.40
2018-04-18T01:14:42.542Z,30.87
2018-04-18T01:17:09.034Z,31.97
2018-04-18T01:19:35.128Z,30.80
2018-04-18T01:22:01.294Z,32.43
2018-04-18T01:24:27.370Z,30.43
2018-04-18T01:26:53.454Z,28.70
2018-04-18T01:29:20.593Z,29.17
2018-04-18T01:31:46.676Z,31.37
2018-04-18T01:34:12.814Z,33.03
2018-04-18T01:36:38.920Z,35.57
2018-04-18T01:39:05.092Z,29.93
2018-04-18T01:41:31.173Z,37.23
2018-04-18T01:43:57.303Z,38.60
2018-04-18T01:46:24.146Z,35.63
2018-04-18T01:48:50.261Z,36.80
2018-04-18T01:51:16.369Z,41.63
2018-04-18T01:53:42.474Z,45.33
2018-04-18T01:56:08.582Z,40.00
2018-04-18T01:58:34.677Z,29.73
2018-04-18T02:01:00.775Z,34.77
2018-04-18T02:03:26.894Z,40.27
2018-04-18T02:05:53.001Z,33.97
2018-04-18T02:08:19.149Z,30.57
2018-04-18T02:10:46.303Z,37.00
2018-04-18T02:13:12.422Z,35.40
2018-04-18T02:15:38.497Z,39.57
2018-04-18T02:18:04.608Z,44.40
2018-04-18T02:20:30.693Z,38.83
2018-04-18T02:22:56.823Z,36.07
2018-04-18T02:25:22.917Z,43.83
2018-04-18T02:27:49.014Z,41.03
2018-04-18T02:30:15.869Z,44.00
2018-04-18T02:32:41.960Z,43.07
2018-04-18T02:35:08.099Z,45.97
2018-04-18T02:37:34.177Z,45.87
2018-04-18T02:40:01.005Z,42.30
2018-04-18T02:42:27.095Z,41.87
2018-04-18T02:44:53.201Z,41.17
2018-04-18T02:47:19.300Z,44.60
2018-04-18T02:49:46.138Z,42.40
2018-04-18T02:52:12.959Z,43.73
2018-04-18T02:54:39.066Z,46.43
2018-04-18T02:57:05.220Z,57.70
2018-04-18T02:59:31.335Z,67.63
2018-04-18T03:01:57.469Z,62.03
2018-04-18T03:04:23.599Z,70.77
2018-04-18T03:06:49.730Z,67.27
2018-04-18T03:09:15.821Z,58.67
2018-04-18T03:11:42.198Z,69.50
2018-04-18T03:14:08.297Z,57.90
2018-04-18T03:16:34.378Z,54.63
2018-04-18T03:19:15.411Z,60.30
2018-04-18T03:21:41.499Z,53.27
2018-04-18T03:24:07.640Z,62.70
2018-04-18T03:26:33.739Z,60.43
2018-04-18T03:28:59.807Z,55.23
2018-04-18T03:31:26.651Z,57.00
2018-04-18T03:33:53.911Z,68.97
2018-04-18T03:36:20.731Z,75.90
2018-04-18T03:38:46.854Z,72.53
2018-04-18T03:41:12.984Z,76.63
2018-04-18T03:43:39.088Z,76.90
2018-04-18T03:46:06.384Z,70.23
2018-04-18T03:48:32.491Z,61.83
2018-04-18T03:50:58.564Z,75.03
2018-04-18T03:53:24.646Z,73.73
2018-04-18T03:55:50.770Z,65.90
2018-04-18T03:58:16.872Z,76.13
2018-04-18T04:00:42.953Z,62.07
2018-04-18T04:03:09.045Z,59.97
2018-04-18T04:05:35.126Z,65.73
2018-04-18T04:08:02.464Z,66.87
2018-04-18T04:10:28.637Z,66.70
2018-04-18T04:12:55.472Z,67.33
2018-04-18T04:15:22.297Z,71.30
2018-04-18T04:18:06.709Z,69.40
2018-04-18T04:20:51.333Z,80.97
2018-04-18T04:23:35.993Z,82.93
2018-04-18T04:26:02.850Z,68.40
2018-04-18T04:28:29.689Z,68.20
2018-04-18T04:30:55.805Z,75.87
2018-04-18T04:33:21.884Z,81.77
2018-04-18T04:35:47.979Z,78.90
2018-04-18T04:38:14.797Z,67.57
2018-04-18T04:40:40.897Z,98.07
2018-04-18T04:43:06.992Z,75.77
2018-04-18T04:45:33.849Z,80.07
2018-04-18T04:48:00.475Z,65.73
2018-04-18T04:50:27.313Z,75.20
2018-04-18T04:52:53.425Z,65.33
2018-04-18T04:55:19.531Z,70.80
2018-04-18T04:57:45.651Z,76.53
2018-04-18T05:00:12.623Z,66.30
2018-04-18T05:02:38.759Z,70.53
2018-04-18T05:05:04.880Z,72.80
2018-04-18T05:07:31.048Z,63.80
2018-04-18T05:09:57.235Z,66.73
2018-04-18T05:12:23.406Z,61.23
2018-04-18T05:14:49.734Z,72.47
2018-04-18T05:17:15.902Z,55.20
2018-04-18T05:19:42.788Z,55.87
2018-04-18T05:22:08.892Z,54.03
2018-04-18T05:24:34.987Z,62.67
2018-04-18T05:27:01.090Z,47.97
2018-04-18T05:29:27.201Z,53.53
2018-04-18T05:31:54.564Z,53.00
2018-04-18T05:34:20.779Z,47.90
2018-04-18T05:36:48.439Z,47.73
2018-04-18T05:39:14.576Z,54.73
2018-04-18T05:41:40.681Z,47.40
2018-04-18T05:44:07.539Z,50.20
2018-04-18T05:46:33.693Z,50.30
2018-04-18T05:48:59.850Z,57.70
2018-04-18T05:51:26.010Z,48.13
2018-04-18T05:53:52.114Z,45.57
2018-04-18T05:56:18.208Z,37.67
2018-04-18T05:58:44.303Z,46.67
2018-04-18T06:01:10.424Z,43.63
2018-04-18T06:03:37.508Z,45.90
2018-04-18T06:06:03.636Z,39.07
2018-04-18T06:08:31.191Z,45.00
2018-04-18T06:10:57.341Z,39.90
2018-04-18T06:13:23.462Z,48.90
2018-04-18T06:15:49.545Z,37.93
2018-04-18T06:18:15.644Z,39.70
2018-04-18T06:20:41.824Z,30.20
2018-04-18T06:23:07.968Z,35.13
2018-04-18T06:25:34.093Z,32.73
2018-04-18T06:28:00.253Z,31.80
2018-04-18T06:30:26.327Z,34.83
2018-04-18T06:32:52.425Z,30.77
2018-04-18T06:35:19.264Z,28.00
2018-04-18T06:37:45.360Z,32.10
2018-04-18T06:40:11.527Z,26.13
2018-04-18T06:42:42.095Z,26.57
2018-04-18T06:45:08.199Z,31.40
2018-04-18T06:47:34.295Z,21.93
2018-04-18T06:50:00.412Z,32.80
2018-04-18T06:52:26.516Z,28.93
2018-04-18T06:54:52.642Z,28.47
2018-04-18T06:57:18.807Z,30.93
2018-04-18T06:59:44.926Z,28.03
2018-04-18T07:02:11.022Z,26.67
2018-04-18T07:04:37.107Z,25.63
2018-04-18T07:07:03.194Z,23.13
2018-04-18T07:09:30.023Z,26.60
2018-04-18T07:11:56.882Z,25.97
2018-04-18T07:14:23.735Z,32.33
2018-04-18T07:16:50.581Z,28.27
2018-04-18T07:19:16.713Z,22.43
2018-04-18T07:21:42.819Z,25.50
2018-04-18T07:24:09.667Z,19.67
2018-04-18T07:26:36.334Z,22.73
2018-04-18T07:29:02.444Z,27.77
2018-04-18T07:31:29.278Z,21.77
2018-04-18T07:33:55.390Z,20.73
2018-04-18T07:36:21.505Z,21.27
2018-04-18T07:38:47.594Z,19.80
2018-04-18T07:41:13.719Z,21.50
2018-04-18T07:43:40.549Z,19.23
2018-04-18T07:46:06.695Z,19.97
2018-04-18T07:48:32.782Z,20.20
2018-04-18T07:50:58.874Z,15.27
2018-04-18T07:53:25.010Z,16.63
2018-04-18T07:55:51.108Z,19.20
2018-04-18T07:58:17.790Z,19.77
2018-04-18T08:00:44.663Z,18.23
2018-04-18T08:03:10.790Z,16.17
2018-04-18T08:05:37.016Z,17.23
2018-04-18T08:08:03.115Z,19.07
2018-04-18T08:10:30.172Z,22.08
2018-04-18T08:12:56.313Z,20.77
2018-04-18T08:15:22.513Z,15.57
2018-04-18T08:17:48.572Z,16.98
2018-04-18T08:20:14.692Z,17.08
2018-04-18T08:22:40.815Z,20.85
2018-04-18T08:25:06.915Z,19.50
2018-04-18T08:27:33.068Z,19.27
2018-04-18T08:29:59.234Z,20.83
2018-04-18T08:32:25.384Z,20.30
2018-04-18T08:34:51.502Z,17.05
2018-04-18T08:37:17.710Z,16.90
2018-04-18T08:39:43.799Z,16.40
2018-04-18T08:42:09.952Z,19.25
2018-04-18T08:44:36.083Z,18.10
2018-04-18T08:47:02.205Z,20.92
2018-04-18T08:49:28.356Z,17.52
2018-04-18T08:51:54.527Z,19.95
2018-04-18T08:54:21.368Z,14.98
2018-04-18T08:56:47.529Z,18.25
2018-04-18T08:59:13.619Z,17.40
2018-04-18T09:01:40.467Z,15.70
2018-04-18T09:04:06.582Z,16.45
2018-04-18T09:06:32.707Z,19.83
2018-04-18T09:08:58.866Z,17.35
2018-04-18T09:11:24.976Z,18.15
2018-04-18T09:13:51.118Z,17.05
2018-04-18T09:16:17.243Z,15.75
2018-04-18T09:18:43.389Z,13.40
2018-04-18T09:21:09.495Z,14.02
2018-04-18T09:23:35.590Z,12.95
2018-04-18T09:26:01.722Z,17.20
2018-04-18T09:28:27.847Z,15.07
2018-04-18T09:30:53.926Z,14.52
2018-04-18T09:33:20.056Z,17.02
2018-04-18T09:35:46.155Z,13.48
2018-04-18T09:38:12.298Z,19.62
2018-04-18T09:40:38.441Z,11.82
2018-04-18T09:43:04.525Z,12.88
2018-04-18T09:45:30.637Z,14.07
2018-04-18T09:47:57.519Z,12.63
2018-04-18T09:50:23.645Z,11.15
2018-04-18T09:52:49.894Z,14.73
2018-04-18T09:55:15.970Z,12.63
2018-04-18T09:57:42.096Z,13.15
2018-04-18T10:00:08.259Z,10.93
2018-04-18T10:02:36.423Z,13.45
2018-04-18T10:05:07.481Z,12.30
2018-04-18T10:07:33.632Z,9.75
2018-04-18T10:09:59.738Z,11.48
2018-04-18T10:12:25.891Z,9.27
2018-04-18T10:14:51.962Z,11.63
2018-04-18T10:17:18.064Z,13.15
2018-04-18T10:19:44.143Z,9.25
2018-04-18T10:22:10.975Z,10.15
2018-04-18T10:24:37.061Z,10.85
2018-04-18T10:27:03.199Z,11.32
2018-04-18T10:29:29.285Z,13.13
2018-04-18T10:31:56.148Z,13.95
2018-04-18T10:34:22.262Z,9.60
2018-04-18T10:36:48.382Z,12.48
2018-04-18T10:39:15.268Z,11.63
2018-04-18T10:41:41.406Z,14.87
2018-04-18T10:44:07.877Z,12.82
2018-04-18T10:46:33.967Z,9.13
2018-04-18T10:49:00.067Z,12.45
2018-04-18T10:51:26.171Z,10.00
2018-04-18T10:53:52.320Z,9.50
2018-04-18T10:56:18.417Z,20.20
2018-04-18T10:58:44.502Z,10.18
2018-04-18T11:01:10.595Z,11.27
2018-04-18T11:03:36.708Z,12.07
2018-04-18T11:06:02.807Z,13.52
2018-04-18T11:08:29.703Z,13.15
2018-04-18T11:10:55.797Z,9.95
2018-04-18T11:13:21.951Z,13.52
2018-04-18T11:15:49.055Z,11.68
2018-04-18T11:18:15.183Z,14.23
2018-04-18T11:20:42.479Z,13.75
2018-04-18T11:23:09.345Z,10.20
2018-04-18T11:25:35.477Z,12.15
2018-04-18T11:28:02.162Z,10.95
2018-04-18T11:30:28.375Z,13.62
2018-04-18T11:32:54.794Z,14.45
2018-04-18T11:35:21.903Z,11.63
2018-04-18T11:37:48.039Z,15.57
2018-04-18T11:40:14.939Z,12.32
2018-04-18T11:42:41.068Z,14.48
2018-04-18T11:45:07.280Z,18.33
2018-04-18T11:47:33.435Z,15.13
2018-04-18T11:49:59.600Z,15.95
2018-04-18T11:52:25.728Z,16.58
2018-04-18T11:54:51.825Z,16.55
2018-04-18T11:57:17.964Z,16.48
2018-04-18T11:59:44.109Z,14.32
2018-04-18T12:02:10.233Z,17.37
2018-04-18T12:04:36.353Z,12.93
2018-04-18T12:07:02.456Z,15.75
2018-04-18T12:09:28.610Z,14.57
2018-04-18T12:11:54.703Z,15.30
2018-04-18T12:14:20.876Z,15.93
2018-04-18T12:16:47.112Z,17.62
2018-04-18T12:19:13.226Z,16.67
2018-04-18T12:21:39.708Z,15.43
2018-04-18T12:24:05.907Z,18.23
2018-04-18T12:26:32.008Z,16.83
2018-04-18T12:28:58.152Z,15.10
2018-04-18T12:31:24.303Z,15.80
2018-04-18T12:33:50.409Z,15.27
2018-04-18T12:36:16.503Z,14.50
2018-04-18T12:38:42.661Z,13.23
2018-04-18T12:41:08.794Z,13.13
2018-04-18T12:43:34.888Z,13.40
2018-04-18T12:46:01.014Z,17.33
2018-04-18T12:48:27.134Z,14.55
2018-04-18T12:50:53.216Z,13.27
2018-04-18T12:53:20.074Z,13.95
2018-04-18T12:55:46.907Z,17.83
2018-04-18T12:58:13.026Z,13.77
2018-04-18T13:00:39.145Z,17.52
2018-04-18T13:03:05.271Z,19.45
2018-04-18T13:05:31.365Z,12.95
2018-04-18T13:07:57.476Z,13.73
2018-04-18T13:10:23.602Z,14.48
2018-04-18T13:12:49.691Z,14.65
2018-04-18T13:15:16.298Z,14.25
2018-04-18T13:17:42.386Z,15.23
2018-04-18T13:20:08.535Z,17.37
2018-04-18T13:22:34.612Z,18.08
2018-04-18T13:25:01.654Z,15.50
2018-04-18T13:27:29.075Z,15.80
2018-04-18T13:29:55.137Z,15.45
2018-04-18T13:32:21.238Z,14.75
2018-04-18T13:34:47.333Z,16.23
2018-04-18T13:37:13.430Z,18.23
2018-04-18T13:39:40.345Z,14.68
2018-04-18T13:42:06.505Z,15.23
2018-04-18T13:44:33.418Z,17.17
2018-04-18T13:47:00.259Z,15.30
2018-04-18T13:49:26.341Z,17.50
2018-04-18T13:51:52.436Z,14.52
2018-04-18T13:54:18.571Z,15.57
2018-04-18T13:56:44.717Z,17.48
2018-04-18T13:59:11.976Z,17.52
2018-04-18T14:01:38.828Z,14.15
2018-04-18T14:04:04.947Z,15.27
2018-04-18T14:08:54.495Z,13.40
2018-04-18T14:11:21.330Z,13.73
2018-04-18T14:13:47.443Z,15.07
2018-04-18T14:16:13.576Z,15.43
2018-04-18T14:18:39.754Z,17.08
2018-04-18T14:21:05.901Z,12.13
2018-04-18T14:23:32.055Z,13.02
2018-04-18T14:25:58.145Z,15.70
2018-04-18T14:28:25.174Z,13.50
2018-04-18T14:30:51.314Z,15.27
2018-04-18T14:33:17.444Z,17.05
2018-04-18T14:35:43.565Z,17.83
2018-04-18T14:38:09.684Z,17.15
2018-04-18T14:40:37.411Z,12.82
2018-04-18T14:43:04.393Z,12.52
2018-04-18T14:45:30.481Z,14.87
2018-04-18T14:47:56.567Z,16.77
2018-04-18T14:50:22.658Z,15.65
2018-04-18T14:52:49.503Z,17.75
2018-04-18T14:55:15.590Z,13.82
2018-04-18T14:57:41.710Z,15.55
2018-04-18T15:00:07.833Z,14.30
2018-04-18T15:02:33.994Z,17.70
2018-04-18T15:05:00.117Z,18.05
2018-04-18T15:07:27.183Z,13.02
2018-04-18T15:09:53.319Z,16.37
2018-04-18T15:12:19.405Z,17.77
2018-04-18T15:14:45.543Z,21.77
2018-04-18T15:17:11.771Z,15.45
2018-04-18T15:19:37.942Z,22.35
2018-04-18T15:22:04.040Z,15.50
2018-04-18T15:24:30.192Z,17.08
2018-04-18T15:26:56.350Z,17.85
2018-04-18T15:29:22.500Z,19.42
2018-04-18T15:31:49.360Z,19.58
2018-04-18T15:34:15.451Z,18.48
2018-04-18T15:36:41.551Z,22.30
2018-04-18T15:39:07.675Z,19.12
2018-04-18T15:41:33.810Z,23.48
2018-04-18T15:43:59.961Z,18.45
2018-04-18T15:46:26.547Z,21.83
2018-04-18T15:48:52.698Z,17.95
2018-04-18T15:51:18.919Z,21.23
2018-04-18T15:53:45.875Z,21.55
2018-04-18T15:56:12.002Z,25.55
2018-04-18T15:58:38.179Z,21.45
2018-04-18T16:01:04.387Z,21.23
2018-04-18T16:03:30.518Z,22.05
2018-04-18T16:05:56.672Z,20.20
2018-04-18T16:08:22.813Z,25.58
2018-04-18T16:10:48.939Z,26.75
2018-04-18T16:13:15.071Z,40.20
2018-04-18T16:15:41.262Z,30.73
2018-04-18T16:18:08.135Z,30.02
2018-04-18T16:20:34.394Z,29.75
2018-04-18T16:23:00.553Z,26.25
2018-04-18T16:25:27.623Z,24.87
2018-04-18T16:27:54.467Z,33.47
2018-04-18T16:30:33.717Z,26.60
2018-04-18T16:32:59.921Z,42.10
2018-04-18T16:35:26.147Z,56.30
2018-04-18T16:37:53.083Z,82.00
2018-04-18T16:40:19.226Z,36.28
2018-04-18T16:42:45.470Z,28.95
2018-04-18T16:45:12.336Z,25.77
2018-04-18T16:47:38.609Z,29.40
2018-04-18T16:50:04.773Z,24.70
2018-04-18T16:52:30.899Z,30.88
2018-04-18T16:54:57.051Z,27.05
2018-04-18T16:57:24.258Z,29.33
2018-04-18T16:59:51.107Z,30.95
2018-04-18T17:02:17.240Z,27.80
2018-04-18T17:04:43.356Z,26.70
2018-04-18T17:07:09.536Z,28.52
2018-04-18T17:09:35.690Z,26.90
2018-04-18T17:12:03.190Z,26.67
2018-04-18T17:14:29.392Z,28.55
2018-04-18T17:16:55.565Z,29.70
2018-04-18T17:19:21.695Z,26.80
2018-04-18T17:21:47.831Z,33.70
2018-04-18T17:24:13.938Z,28.62
2018-04-18T17:26:40.051Z,31.75
2018-04-18T17:29:06.894Z,29.52
2018-04-18T17:31:34.346Z,33.50
2018-04-18T17:34:01.491Z,29.83
2018-04-18T17:36:27.610Z,29.73
2018-04-18T17:38:53.783Z,31.90
2018-04-18T17:41:19.953Z,28.73
2018-04-18T17:43:46.089Z,33.80
2018-04-18T17:46:12.189Z,33.70
2018-04-18T17:48:38.327Z,36.72
2018-04-18T17:51:04.454Z,43.00
2018-04-18T17:53:31.172Z,32.63
2018-04-18T17:55:59.758Z,31.12
2018-04-18T17:58:26.245Z,33.28
2018-04-18T18:00:53.421Z,40.80
2018-04-18T18:03:19.531Z,39.78
2018-04-18T18:05:45.643Z,36.20
2018-04-18T18:08:11.759Z,37.42
2018-04-18T18:10:38.631Z,38.13
2018-04-18T18:13:04.809Z,39.13
2018-04-18T18:15:30.914Z,37.38
2018-04-18T18:17:57.009Z,32.75
2018-04-18T18:20:23.132Z,35.88
2018-04-18T18:22:49.244Z,34.22
2018-04-18T18:25:15.412Z,38.08
2018-04-18T18:27:41.517Z,41.05
2018-04-18T18:30:08.400Z,39.55
2018-04-18T18:32:34.533Z,37.92
2018-04-18T18:35:00.671Z,35.55
2018-04-18T18:37:26.785Z,35.28
2018-04-18T18:39:52.890Z,34.38
2018-04-18T18:42:19.780Z,32.75
2018-04-18T18:44:46.648Z,33.17
2018-04-18T18:47:12.834Z,33.50
2018-04-18T18:49:38.961Z,39.65
2018-04-18T18:52:05.079Z,36.50
2018-04-18T18:54:32.126Z,37.97
2018-04-18T18:56:58.373Z,30.35
2018-04-18T18:59:24.464Z,30.55
2018-04-18T19:01:50.631Z,39.35
2018-04-18T19:04:16.778Z,38.80
2018-04-18T19:06:43.623Z,40.40
2018-04-18T19:09:11.025Z,33.03
2018-04-18T19:11:37.102Z,36.30
2018-04-18T19:14:03.281Z,32.92
2018-04-18T19:16:29.404Z,32.53
2018-04-18T19:18:55.560Z,36.25
2018-04-18T19:21:21.697Z,32.08
2018-04-18T19:23:47.782Z,32.53
2018-04-18T19:26:13.888Z,33.80
2018-04-18T19:28:39.983Z,37.35
2018-04-18T19:31:06.816Z,31.30
2018-04-18T19:33:32.910Z,32.17
2018-04-18T19:35:59.037Z,32.30
2018-04-18T19:38:25.920Z,30.87
2018-04-18T19:40:52.024Z,27.63
2018-04-18T19:43:18.120Z,34.10
2018-04-18T19:45:44.297Z,30.50
2018-04-18T19:48:10.412Z,29.97
2018-04-18T19:50:36.532Z,25.90
2018-04-18T19:53:02.667Z,33.33
2018-04-18T19:55:28.795Z,31.13
2018-04-18T19:57:54.891Z,32.83
2018-04-18T20:00:20.972Z,33.23
2018-04-18T20:02:47.563Z,33.10
2018-04-18T20:05:13.755Z,31.87
2018-04-18T20:07:39.842Z,30.40
2018-04-18T20:10:06.021Z,37.00
2018-04-18T20:12:32.916Z,28.43
2018-04-18T20:14:58.978Z,8.73
2018-04-18T20:41:42.491Z,31.50
2018-04-18T20:44:08.585Z,34.03
2018-04-18T20:46:34.694Z,33.03
2018-04-18T20:49:00.806Z,33.58
2018-04-18T20:51:26.931Z,33.72
2018-04-18T20:53:53.288Z,32.03
2018-04-18T20:56:19.407Z,35.10
2018-04-18T20:58:45.564Z,36.93
2018-04-18T21:01:11.766Z,38.50
2018-04-18T21:03:37.865Z,38.67
2018-04-18T21:06:04.000Z,37.47
2018-04-18T21:08:30.187Z,32.63
2018-04-18T21:10:56.279Z,34.60
2018-04-18T21:13:22.424Z,37.27
2018-04-18T21:15:48.512Z,36.00
2018-04-18T21:18:14.646Z,35.17
2018-04-18T21:20:41.342Z,37.10
2018-04-18T21:23:07.461Z,29.57
2018-04-18T21:25:33.611Z,35.67
2018-04-18T21:27:59.741Z,36.73
2018-04-18T21:30:25.896Z,42.80
2018-04-18T21:32:53.046Z,36.50
2018-04-18T21:35:19.972Z,39.40
2018-04-18T21:37:46.164Z,34.50
2018-04-18T21:40:12.291Z,36.97
2018-04-18T21:42:38.409Z,36.53
2018-04-18T21:45:04.455Z,35.23
2018-04-18T21:47:30.561Z,36.63
2018-04-18T21:49:56.636Z,32.57
2018-04-18T21:52:22.764Z,40.90
2018-04-18T21:54:48.886Z,34.50
2018-04-18T21:57:14.986Z,37.40
2018-04-18T21:59:41.176Z,34.60
2018-04-18T22:02:07.279Z,39.17
2018-04-18T22:04:33.374Z,44.20
2018-04-18T22:06:59.442Z,42.60
2018-04-18T22:12:19.238Z,40.30
2018-04-18T22:14:45.371Z,45.23
2018-04-18T22:17:11.463Z,43.50
2018-04-18T22:19:37.580Z,38.97
2018-04-18T22:22:03.721Z,45.47
2018-04-18T22:24:29.818Z,43.13
2018-04-18T22:26:55.960Z,44.93
2018-04-18T22:29:22.038Z,45.53
2018-04-18T22:31:48.114Z,45.27
2018-04-18T22:34:14.194Z,47.23
2018-04-18T22:36:40.290Z,45.70
2018-04-18T22:39:06.388Z,46.97
2018-04-18T22:41:32.508Z,49.33
2018-04-18T22:43:58.620Z,48.67
2018-04-18T22:46:24.710Z,45.67
2018-04-18T22:48:50.807Z,55.07
2018-04-18T22:51:16.915Z,48.73
2018-04-18T22:53:43.009Z,43.10
2018-04-18T22:56:09.907Z,51.80
2018-04-18T22:58:36.011Z,50.73
2018-04-18T23:01:02.113Z,50.43
2018-04-18T23:03:28.225Z,48.80
2018-04-18T23:05:54.328Z,48.93
2018-04-18T23:08:20.443Z,47.80
2018-04-18T23:10:46.494Z,58.30
2018-04-18T23:13:12.564Z,53.83
2018-04-18T23:15:38.699Z,52.27
2018-04-18T23:18:04.815Z,51.13
2018-04-18T23:20:31.242Z,58.47
2018-04-18T23:22:57.325Z,49.67
2018-04-18T23:25:23.412Z,48.17
2018-04-18T23:27:49.503Z,57.43
2018-04-18T23:30:15.582Z,57.83
2018-04-18T23:32:41.699Z,54.10
2018-04-18T23:35:07.791Z,57.60
2018-04-18T23:37:34.177Z,50.83
2018-04-18T23:40:00.266Z,52.80
2018-04-18T23:42:26.402Z,51.50
2018-04-18T23:44:52.512Z,56.13
2018-04-18T23:47:18.661Z,56.43
2018-04-18T23:49:44.756Z,58.27
2018-04-18T23:52:10.859Z,53.70
2018-04-18T23:54:36.947Z,55.60
2018-04-18T23:57:03.087Z,59.10
2018-04-18T23:59:29.172Z,53.90
